Terminal Aerodrome Forecast
Issued by NWS Knoxville/Tri Cities, TN

Home | Current Version | Previous Version | Text Only | Print | Product List | Glossary On
Versions: 1 2 3 4 5 6 7 8 9 10 11 12 13 14 15 16 17 18 19 20 21 22 23 24 25 26
000
FTUS44 KMRX 240520
TAFTYS
TAF
KTYS 240520Z 2406/2506 21007KT P6SM VCSH OVC020
      TEMPO 2409/2413 4SM BR BKN008
     FM241400 25006KT P6SM VCTS SCT018 OVC025CB
     FM241800 30007KT P6SM SCT040 OVC120
     FM250000 32007KT P6SM SCT120=

USA.gov is the U.S. government's official web portal to all federal, state and local government web resources and services.